sensor_id;sensor_type;location;lat;lon;timestamp;P1;durP1;ratioP1;P2;durP2;ratioP2
68995;SDS011;56056;48.990;12.146;2022-08-25T00:00:17;10.55;;;9.45;;
68995;SDS011;56056;48.990;12.146;2022-08-25T00:02:42;10.50;;;9.50;;
68995;SDS011;56056;48.990;12.146;2022-08-25T00:05:08;10.68;;;9.68;;
68995;SDS011;56056;48.990;12.146;2022-08-25T00:07:35;10.60;;;9.70;;
68995;SDS011;56056;48.990;12.146;2022-08-25T00:10:01;10.40;;;9.40;;
68995;SDS011;56056;48.990;12.146;2022-08-25T00:12:27;11.60;;;10.35;;
68995;SDS011;56056;48.990;12.146;2022-08-25T00:14:53;10.23;;;9.35;;
68995;SDS011;56056;48.990;12.146;2022-08-25T00:17:19;10.07;;;9.18;;
68995;SDS011;56056;48.990;12.146;2022-08-25T00:19:44;10.25;;;9.38;;
68995;SDS011;56056;48.990;12.146;2022-08-25T00:22:10;10.07;;;9.15;;
68995;SDS011;56056;48.990;12.146;2022-08-25T00:24:37;10.65;;;9.75;;
68995;SDS011;56056;48.990;12.146;2022-08-25T00:27:03;9.43;;;8.63;;
68995;SDS011;56056;48.990;12.146;2022-08-25T00:29:29;9.48;;;8.77;;
68995;SDS011;56056;48.990;12.146;2022-08-25T00:31:56;9.65;;;8.65;;
68995;SDS011;56056;48.990;12.146;2022-08-25T00:34:24;10.40;;;9.30;;
68995;SDS011;56056;48.990;12.146;2022-08-25T00:36:51;9.63;;;8.80;;
68995;SDS011;56056;48.990;12.146;2022-08-25T00:39:18;10.30;;;9.27;;
68995;SDS011;56056;48.990;12.146;2022-08-25T00:41:46;10.82;;;9.73;;
68995;SDS011;56056;48.990;12.146;2022-08-25T00:44:14;10.63;;;9.63;;
68995;SDS011;56056;48.990;12.146;2022-08-25T00:46:43;9.52;;;8.73;;
68995;SDS011;56056;48.990;12.146;2022-08-25T00:49:13;10.20;;;9.15;;
68995;SDS011;56056;48.990;12.146;2022-08-25T00:51:41;10.80;;;9.80;;
68995;SDS011;56056;48.990;12.146;2022-08-25T00:54:09;9.85;;;8.95;;
68995;SDS011;56056;48.990;12.146;2022-08-25T00:56:41;10.30;;;9.30;;
68995;SDS011;56056;48.990;12.146;2022-08-25T00:59:08;11.13;;;10.00;;
68995;SDS011;56056;48.990;12.146;2022-08-25T01:01:34;10.90;;;9.80;;
68995;SDS011;56056;48.990;12.146;2022-08-25T01:04:00;10.85;;;9.82;;
68995;SDS011;56056;48.990;12.146;2022-08-25T01:06:26;11.13;;;10.13;;
68995;SDS011;56056;48.990;12.146;2022-08-25T01:08:52;11.25;;;10.13;;
68995;SDS011;56056;48.990;12.146;2022-08-25T01:11:18;10.85;;;9.75;;
68995;SDS011;56056;48.990;12.146;2022-08-25T01:13:46;9.82;;;9.02;;
68995;SDS011;56056;48.990;12.146;2022-08-25T01:16:16;10.73;;;9.73;;
68995;SDS011;56056;48.990;12.146;2022-08-25T01:18:42;11.68;;;10.57;;
68995;SDS011;56056;48.990;12.146;2022-08-25T01:21:11;11.10;;;10.10;;
68995;SDS011;56056;48.990;12.146;2022-08-25T01:23:37;11.27;;;10.27;;
68995;SDS011;56056;48.990;12.146;2022-08-25T01:26:04;11.18;;;10.18;;
68995;SDS011;56056;48.990;12.146;2022-08-25T01:28:32;11.32;;;10.23;;
68995;SDS011;56056;48.990;12.146;2022-08-25T01:30:58;11.15;;;10.15;;
68995;SDS011;56056;48.990;12.146;2022-08-25T01:33:24;10.05;;;9.20;;
68995;SDS011;56056;48.990;12.146;2022-08-25T01:35:50;11.20;;;10.10;;
68995;SDS011;56056;48.990;12.146;2022-08-25T01:38:17;11.40;;;10.23;;
68995;SDS011;56056;48.990;12.146;2022-08-25T01:40:44;10.95;;;9.98;;
68995;SDS011;56056;48.990;12.146;2022-08-25T01:43:11;11.35;;;10.25;;
68995;SDS011;56056;48.990;12.146;2022-08-25T01:45:42;10.82;;;9.73;;
68995;SDS011;56056;48.990;12.146;2022-08-25T01:48:10;11.23;;;10.02;;
68995;SDS011;56056;48.990;12.146;2022-08-25T01:50:36;11.30;;;10.27;;
68995;SDS011;56056;48.990;12.146;2022-08-25T01:53:03;10.23;;;9.25;;
68995;SDS011;56056;48.990;12.146;2022-08-25T01:55:34;11.05;;;10.05;;
68995;SDS011;56056;48.990;12.146;2022-08-25T01:58:15;10.80;;;9.75;;
68995;SDS011;56056;48.990;12.146;2022-08-25T02:00:43;10.98;;;9.98;;
68995;SDS011;56056;48.990;12.146;2022-08-25T02:03:09;11.73;;;10.63;;
68995;SDS011;56056;48.990;12.146;2022-08-25T02:05:35;11.30;;;10.23;;
68995;SDS011;56056;48.990;12.146;2022-08-25T02:08:00;11.63;;;10.63;;
68995;SDS011;56056;48.990;12.146;2022-08-25T02:10:26;11.40;;;10.40;;
68995;SDS011;56056;48.990;12.146;2022-08-25T02:12:53;12.15;;;11.05;;
68995;SDS011;56056;48.990;12.146;2022-08-25T02:15:19;12.38;;;11.27;;
68995;SDS011;56056;48.990;12.146;2022-08-25T02:17:45;11.43;;;10.32;;
68995;SDS011;56056;48.990;12.146;2022-08-25T02:20:10;13.68;;;12.25;;
68995;SDS011;56056;48.990;12.146;2022-08-25T02:22:36;11.27;;;10.20;;
68995;SDS011;56056;48.990;12.146;2022-08-25T02:25:02;12.10;;;11.00;;
68995;SDS011;56056;48.990;12.146;2022-08-25T02:27:29;11.85;;;10.70;;
68995;SDS011;56056;48.990;12.146;2022-08-25T02:29:56;11.52;;;10.50;;
68995;SDS011;56056;48.990;12.146;2022-08-25T02:32:22;11.32;;;10.18;;
68995;SDS011;56056;48.990;12.146;2022-08-25T02:34:48;13.05;;;11.57;;
68995;SDS011;56056;48.990;12.146;2022-08-25T02:37:13;13.00;;;11.80;;
68995;SDS011;56056;48.990;12.146;2022-08-25T02:39:39;12.85;;;11.65;;
68995;SDS011;56056;48.990;12.146;2022-08-25T02:42:05;11.50;;;10.48;;
68995;SDS011;56056;48.990;12.146;2022-08-25T02:44:30;11.88;;;10.75;;
68995;SDS011;56056;48.990;12.146;2022-08-25T02:46:57;12.63;;;11.43;;
68995;SDS011;56056;48.990;12.146;2022-08-25T02:49:23;12.43;;;11.30;;
68995;SDS011;56056;48.990;12.146;2022-08-25T02:51:49;13.15;;;11.95;;
68995;SDS011;56056;48.990;12.146;2022-08-25T02:54:15;12.65;;;11.38;;
68995;SDS011;56056;48.990;12.146;2022-08-25T02:56:41;12.55;;;11.38;;
68995;SDS011;56056;48.990;12.146;2022-08-25T02:59:07;12.52;;;11.35;;
68995;SDS011;56056;48.990;12.146;2022-08-25T03:01:33;12.77;;;11.48;;
68995;SDS011;56056;48.990;12.146;2022-08-25T03:04:00;12.23;;;11.13;;
68995;SDS011;56056;48.990;12.146;2022-08-25T03:06:26;13.15;;;11.85;;
68995;SDS011;56056;48.990;12.146;2022-08-25T03:08:53;12.40;;;11.20;;
68995;SDS011;56056;48.990;12.146;2022-08-25T03:11:19;13.95;;;11.98;;
68995;SDS011;56056;48.990;12.146;2022-08-25T03:13:45;13.18;;;11.75;;
68995;SDS011;56056;48.990;12.146;2022-08-25T03:16:13;12.77;;;11.57;;
68995;SDS011;56056;48.990;12.146;2022-08-25T03:18:39;12.48;;;11.38;;
68995;SDS011;56056;48.990;12.146;2022-08-25T03:21:07;13.73;;;12.38;;
68995;SDS011;56056;48.990;12.146;2022-08-25T03:23:34;14.00;;;12.57;;
68995;SDS011;56056;48.990;12.146;2022-08-25T03:25:59;13.93;;;12.55;;
68995;SDS011;56056;48.990;12.146;2022-08-25T03:28:44;13.55;;;12.20;;
68995;SDS011;56056;48.990;12.146;2022-08-25T03:31:10;13.65;;;12.23;;
68995;SDS011;56056;48.990;12.146;2022-08-25T03:33:35;12.82;;;11.63;;
68995;SDS011;56056;48.990;12.146;2022-08-25T03:36:02;13.50;;;12.20;;
68995;SDS011;56056;48.990;12.146;2022-08-25T03:38:30;13.80;;;12.48;;
68995;SDS011;56056;48.990;12.146;2022-08-25T03:40:56;14.18;;;12.77;;
68995;SDS011;56056;48.990;12.146;2022-08-25T03:43:22;13.77;;;12.48;;
68995;SDS011;56056;48.990;12.146;2022-08-25T03:45:47;13.77;;;12.48;;
68995;SDS011;56056;48.990;12.146;2022-08-25T03:48:13;14.00;;;12.50;;
68995;SDS011;56056;48.990;12.146;2022-08-25T03:50:42;14.93;;;13.45;;
68995;SDS011;56056;48.990;12.146;2022-08-25T03:53:09;13.57;;;12.23;;
68995;SDS011;56056;48.990;12.146;2022-08-25T03:55:36;13.70;;;11.88;;
68995;SDS011;56056;48.990;12.146;2022-08-25T03:58:01;14.68;;;13.27;;
68995;SDS011;56056;48.990;12.146;2022-08-25T04:00:27;15.55;;;13.95;;
68995;SDS011;56056;48.990;12.146;2022-08-25T04:02:53;13.63;;;12.32;;
68995;SDS011;56056;48.990;12.146;2022-08-25T04:05:19;14.30;;;12.80;;
68995;SDS011;56056;48.990;12.146;2022-08-25T04:07:44;13.95;;;12.65;;
68995;SDS011;56056;48.990;12.146;2022-08-25T04:10:10;13.60;;;12.20;;
68995;SDS011;56056;48.990;12.146;2022-08-25T04:12:37;14.25;;;12.73;;
68995;SDS011;56056;48.990;12.146;2022-08-25T04:15:04;13.70;;;12.35;;
68995;SDS011;56056;48.990;12.146;2022-08-25T04:17:30;14.60;;;12.90;;
68995;SDS011;56056;48.990;12.146;2022-08-25T04:19:56;14.27;;;12.85;;
68995;SDS011;56056;48.990;12.146;2022-08-25T04:22:22;14.02;;;12.60;;
68995;SDS011;56056;48.990;12.146;2022-08-25T04:24:48;14.38;;;12.93;;
68995;SDS011;56056;48.990;12.146;2022-08-25T04:27:13;14.00;;;12.70;;
68995;SDS011;56056;48.990;12.146;2022-08-25T04:29:40;15.73;;;13.63;;
68995;SDS011;56056;48.990;12.146;2022-08-25T04:32:06;14.05;;;12.50;;
68995;SDS011;56056;48.990;12.146;2022-08-25T04:34:32;15.38;;;13.18;;
68995;SDS011;56056;48.990;12.146;2022-08-25T04:36:59;14.35;;;12.75;;
68995;SDS011;56056;48.990;12.146;2022-08-25T04:39:25;15.20;;;13.70;;
68995;SDS011;56056;48.990;12.146;2022-08-25T04:41:51;15.77;;;13.07;;
68995;SDS011;56056;48.990;12.146;2022-08-25T04:44:17;15.15;;;13.65;;
68995;SDS011;56056;48.990;12.146;2022-08-25T04:46:44;14.88;;;13.38;;
68995;SDS011;56056;48.990;12.146;2022-08-25T04:49:09;14.82;;;13.23;;
68995;SDS011;56056;48.990;12.146;2022-08-25T04:51:36;17.38;;;13.80;;
68995;SDS011;56056;48.990;12.146;2022-08-25T04:54:04;15.50;;;13.90;;
68995;SDS011;56056;48.990;12.146;2022-08-25T04:56:32;15.05;;;13.55;;
68995;SDS011;56056;48.990;12.146;2022-08-25T04:59:00;14.68;;;13.18;;
68995;SDS011;56056;48.990;12.146;2022-08-25T05:01:27;16.85;;;13.90;;
68995;SDS011;56056;48.990;12.146;2022-08-25T05:03:55;14.63;;;13.18;;
68995;SDS011;56056;48.990;12.146;2022-08-25T05:06:22;14.43;;;12.98;;
68995;SDS011;56056;48.990;12.146;2022-08-25T05:08:48;14.88;;;13.35;;
68995;SDS011;56056;48.990;12.146;2022-08-25T05:11:15;14.95;;;13.52;;
68995;SDS011;56056;48.990;12.146;2022-08-25T05:13:44;17.23;;;13.20;;
68995;SDS011;56056;48.990;12.146;2022-08-25T05:16:10;14.48;;;13.02;;
68995;SDS011;56056;48.990;12.146;2022-08-25T05:18:36;15.05;;;13.55;;
68995;SDS011;56056;48.990;12.146;2022-08-25T05:21:04;14.30;;;12.52;;
68995;SDS011;56056;48.990;12.146;2022-08-25T05:23:31;15.68;;;13.82;;
68995;SDS011;56056;48.990;12.146;2022-08-25T05:26:00;15.13;;;13.55;;
68995;SDS011;56056;48.990;12.146;2022-08-25T05:28:27;13.43;;;12.23;;
68995;SDS011;56056;48.990;12.146;2022-08-25T05:30:56;14.65;;;13.15;;
68995;SDS011;56056;48.990;12.146;2022-08-25T05:33:23;13.65;;;12.35;;
68995;SDS011;56056;48.990;12.146;2022-08-25T05:35:48;14.35;;;13.02;;
68995;SDS011;56056;48.990;12.146;2022-08-25T05:38:16;15.23;;;13.63;;
68995;SDS011;56056;48.990;12.146;2022-08-25T05:40:42;15.35;;;13.85;;
68995;SDS011;56056;48.990;12.146;2022-08-25T05:43:07;13.98;;;12.48;;
68995;SDS011;56056;48.990;12.146;2022-08-25T05:45:33;13.13;;;11.82;;
68995;SDS011;56056;48.990;12.146;2022-08-25T05:47:59;14.45;;;12.95;;
68995;SDS011;56056;48.990;12.146;2022-08-25T05:50:25;13.70;;;12.23;;
68995;SDS011;56056;48.990;12.146;2022-08-25T05:52:51;13.60;;;12.20;;
68995;SDS011;56056;48.990;12.146;2022-08-25T05:55:18;14.95;;;12.45;;
68995;SDS011;56056;48.990;12.146;2022-08-25T05:57:44;14.70;;;12.10;;
68995;SDS011;56056;48.990;12.146;2022-08-25T06:00:11;13.82;;;12.52;;
68995;SDS011;56056;48.990;12.146;2022-08-25T06:02:37;13.93;;;12.25;;
68995;SDS011;56056;48.990;12.146;2022-08-25T06:05:05;13.63;;;12.32;;
68995;SDS011;56056;48.990;12.146;2022-08-25T06:07:32;15.68;;;13.05;;
68995;SDS011;56056;48.990;12.146;2022-08-25T06:09:57;13.35;;;11.88;;
68995;SDS011;56056;48.990;12.146;2022-08-25T06:12:24;13.70;;;12.15;;
68995;SDS011;56056;48.990;12.146;2022-08-25T06:14:50;14.73;;;12.23;;
68995;SDS011;56056;48.990;12.146;2022-08-25T06:17:16;12.68;;;11.48;;
68995;SDS011;56056;48.990;12.146;2022-08-25T06:19:42;13.52;;;11.70;;
68995;SDS011;56056;48.990;12.146;2022-08-25T06:22:08;13.43;;;11.68;;
68995;SDS011;56056;48.990;12.146;2022-08-25T06:24:34;12.13;;;10.57;;
68995;SDS011;56056;48.990;12.146;2022-08-25T06:27:00;11.20;;;10.10;;
68995;SDS011;56056;48.990;12.146;2022-08-25T06:29:27;11.68;;;10.48;;
68995;SDS011;56056;48.990;12.146;2022-08-25T06:31:53;10.85;;;9.90;;
68995;SDS011;56056;48.990;12.146;2022-08-25T06:34:19;11.05;;;10.05;;
68995;SDS011;56056;48.990;12.146;2022-08-25T06:36:44;12.45;;;11.25;;
68995;SDS011;56056;48.990;12.146;2022-08-25T06:39:10;11.90;;;10.90;;
68995;SDS011;56056;48.990;12.146;2022-08-25T06:41:36;11.50;;;10.40;;
68995;SDS011;56056;48.990;12.146;2022-08-25T06:44:02;11.45;;;10.55;;
68995;SDS011;56056;48.990;12.146;2022-08-25T06:46:30;10.90;;;9.88;;
68995;SDS011;56056;48.990;12.146;2022-08-25T06:48:56;11.23;;;10.32;;
68995;SDS011;56056;48.990;12.146;2022-08-25T06:51:22;12.13;;;10.93;;
68995;SDS011;56056;48.990;12.146;2022-08-25T06:53:50;11.57;;;10.55;;
68995;SDS011;56056;48.990;12.146;2022-08-25T06:56:17;10.60;;;9.65;;
68995;SDS011;56056;48.990;12.146;2022-08-25T06:58:44;11.77;;;10.48;;
68995;SDS011;56056;48.990;12.146;2022-08-25T07:01:11;10.82;;;9.65;;
68995;SDS011;56056;48.990;12.146;2022-08-25T07:03:39;11.25;;;10.10;;
68995;SDS011;56056;48.990;12.146;2022-08-25T07:06:05;10.82;;;9.82;;
68995;SDS011;56056;48.990;12.146;2022-08-25T07:08:31;11.23;;;9.85;;
68995;SDS011;56056;48.990;12.146;2022-08-25T07:10:57;10.40;;;9.55;;
68995;SDS011;56056;48.990;12.146;2022-08-25T07:13:23;11.27;;;9.65;;
68995;SDS011;56056;48.990;12.146;2022-08-25T07:15:52;11.38;;;10.38;;
68995;SDS011;56056;48.990;12.146;2022-08-25T07:18:18;10.70;;;9.73;;
68995;SDS011;56056;48.990;12.146;2022-08-25T07:20:45;10.80;;;9.75;;
68995;SDS011;56056;48.990;12.146;2022-08-25T07:23:10;10.77;;;9.88;;
68995;SDS011;56056;48.990;12.146;2022-08-25T07:25:36;10.07;;;9.18;;
68995;SDS011;56056;48.990;12.146;2022-08-25T07:28:02;9.43;;;8.63;;
68995;SDS011;56056;48.990;12.146;2022-08-25T07:30:28;9.25;;;8.43;;
68995;SDS011;56056;48.990;12.146;2022-08-25T07:32:54;9.40;;;8.50;;
68995;SDS011;56056;48.990;12.146;2022-08-25T07:35:19;8.80;;;7.82;;
68995;SDS011;56056;48.990;12.146;2022-08-25T07:37:49;8.75;;;7.95;;
68995;SDS011;56056;48.990;12.146;2022-08-25T07:40:17;8.20;;;7.55;;
68995;SDS011;56056;48.990;12.146;2022-08-25T07:42:45;8.82;;;7.97;;
68995;SDS011;56056;48.990;12.146;2022-08-25T07:45:12;8.45;;;7.57;;
68995;SDS011;56056;48.990;12.146;2022-08-25T07:47:38;8.18;;;7.43;;
68995;SDS011;56056;48.990;12.146;2022-08-25T07:50:04;8.68;;;7.88;;
68995;SDS011;56056;48.990;12.146;2022-08-25T07:52:31;8.82;;;8.05;;
68995;SDS011;56056;48.990;12.146;2022-08-25T07:54:58;8.77;;;8.07;;
68995;SDS011;56056;48.990;12.146;2022-08-25T07:57:23;8.88;;;8.07;;
68995;SDS011;56056;48.990;12.146;2022-08-25T07:59:50;8.70;;;8.00;;
68995;SDS011;56056;48.990;12.146;2022-08-25T08:02:16;8.68;;;7.80;;
68995;SDS011;56056;48.990;12.146;2022-08-25T08:04:42;8.57;;;7.90;;
68995;SDS011;56056;48.990;12.146;2022-08-25T08:07:09;9.30;;;8.40;;
68995;SDS011;56056;48.990;12.146;2022-08-25T08:09:35;9.45;;;8.48;;
68995;SDS011;56056;48.990;12.146;2022-08-25T08:12:03;12.57;;;8.52;;
68995;SDS011;56056;48.990;12.146;2022-08-25T08:14:29;13.50;;;8.27;;
68995;SDS011;56056;48.990;12.146;2022-08-25T08:16:55;13.25;;;9.25;;
68995;SDS011;56056;48.990;12.146;2022-08-25T08:19:21;12.20;;;8.77;;
68995;SDS011;56056;48.990;12.146;2022-08-25T08:21:47;14.52;;;9.18;;
68995;SDS011;56056;48.990;12.146;2022-08-25T08:24:13;13.32;;;9.07;;
68995;SDS011;56056;48.990;12.146;2022-08-25T08:26:39;12.48;;;8.95;;
68995;SDS011;56056;48.990;12.146;2022-08-25T08:29:06;22.63;;;11.82;;
68995;SDS011;56056;48.990;12.146;2022-08-25T08:31:31;15.02;;;9.10;;
68995;SDS011;56056;48.990;12.146;2022-08-25T08:33:58;12.00;;;9.13;;
68995;SDS011;56056;48.990;12.146;2022-08-25T08:36:24;21.35;;;9.63;;
68995;SDS011;56056;48.990;12.146;2022-08-25T08:38:50;15.20;;;9.20;;
68995;SDS011;56056;48.990;12.146;2022-08-25T08:41:20;15.38;;;9.40;;
68995;SDS011;56056;48.990;12.146;2022-08-25T08:44:30;15.05;;;9.38;;
68995;SDS011;56056;48.990;12.146;2022-08-25T08:47:03;13.10;;;9.10;;
68995;SDS011;56056;48.990;12.146;2022-08-25T08:49:32;15.20;;;9.05;;
68995;SDS011;56056;48.990;12.146;2022-08-25T08:52:01;14.48;;;8.82;;
68995;SDS011;56056;48.990;12.146;2022-08-25T08:54:29;10.63;;;9.18;;
68995;SDS011;56056;48.990;12.146;2022-08-25T08:57:00;15.43;;;8.68;;
68995;SDS011;56056;48.990;12.146;2022-08-25T08:59:30;12.82;;;8.55;;
68995;SDS011;56056;48.990;12.146;2022-08-25T09:02:01;13.20;;;8.77;;
68995;SDS011;56056;48.990;12.146;2022-08-25T09:04:31;14.32;;;8.60;;
68995;SDS011;56056;48.990;12.146;2022-08-25T09:06:59;14.95;;;9.32;;
68995;SDS011;56056;48.990;12.146;2022-08-25T09:09:26;13.25;;;8.68;;
68995;SDS011;56056;48.990;12.146;2022-08-25T09:11:56;13.27;;;8.70;;
68995;SDS011;56056;48.990;12.146;2022-08-25T09:14:34;14.07;;;8.32;;
68995;SDS011;56056;48.990;12.146;2022-08-25T09:17:07;12.25;;;8.52;;
68995;SDS011;56056;48.990;12.146;2022-08-25T09:22:40;9.90;;;8.50;;
68995;SDS011;56056;48.990;12.146;2022-08-25T09:25:14;10.25;;;8.95;;
68995;SDS011;56056;48.990;12.146;2022-08-25T09:27:45;9.80;;;8.90;;
68995;SDS011;56056;48.990;12.146;2022-08-25T09:30:16;13.32;;;7.90;;
68995;SDS011;56056;48.990;12.146;2022-08-25T09:32:44;13.40;;;8.98;;
68995;SDS011;56056;48.990;12.146;2022-08-25T09:35:13;10.57;;;8.50;;
68995;SDS011;56056;48.990;12.146;2022-08-25T09:37:41;14.13;;;8.55;;
68995;SDS011;56056;48.990;12.146;2022-08-25T09:40:07;13.52;;;9.23;;
68995;SDS011;56056;48.990;12.146;2022-08-25T09:42:46;13.02;;;8.80;;
68995;SDS011;56056;48.990;12.146;2022-08-25T09:45:13;15.55;;;8.75;;
68995;SDS011;56056;48.990;12.146;2022-08-25T09:47:41;11.70;;;8.88;;
68995;SDS011;56056;48.990;12.146;2022-08-25T09:50:11;13.98;;;9.77;;
68995;SDS011;56056;48.990;12.146;2022-08-25T09:52:39;15.10;;;9.57;;
68995;SDS011;56056;48.990;12.146;2022-08-25T09:55:23;12.77;;;9.10;;
68995;SDS011;56056;48.990;12.146;2022-08-25T09:57:53;13.63;;;9.60;;
68995;SDS011;56056;48.990;12.146;2022-08-25T10:00:23;13.23;;;8.85;;
68995;SDS011;56056;48.990;12.146;2022-08-25T10:05:55;11.20;;;8.80;;
68995;SDS011;56056;48.990;12.146;2022-08-25T10:08:29;11.60;;;8.90;;
68995;SDS011;56056;48.990;12.146;2022-08-25T10:10:57;11.30;;;8.55;;
68995;SDS011;56056;48.990;12.146;2022-08-25T10:13:31;13.10;;;9.10;;
68995;SDS011;56056;48.990;12.146;2022-08-25T10:16:03;9.32;;;8.48;;
68995;SDS011;56056;48.990;12.146;2022-08-25T10:18:31;10.20;;;8.90;;
68995;SDS011;56056;48.990;12.146;2022-08-25T10:21:00;14.65;;;8.30;;
68995;SDS011;56056;48.990;12.146;2022-08-25T10:23:32;9.32;;;8.10;;
68995;SDS011;56056;48.990;12.146;2022-08-25T10:26:02;9.25;;;8.18;;
68995;SDS011;56056;48.990;12.146;2022-08-25T10:28:31;9.38;;;8.55;;
68995;SDS011;56056;48.990;12.146;2022-08-25T10:31:03;9.90;;;8.88;;
68995;SDS011;56056;48.990;12.146;2022-08-25T10:33:38;16.02;;;9.18;;
68995;SDS011;56056;48.990;12.146;2022-08-25T10:36:11;9.68;;;8.70;;
68995;SDS011;56056;48.990;12.146;2022-08-25T10:38:41;12.70;;;8.75;;
68995;SDS011;56056;48.990;12.146;2022-08-25T10:43:56;9.55;;;8.43;;
68995;SDS011;56056;48.990;12.146;2022-08-25T10:46:32;9.35;;;8.38;;
68995;SDS011;56056;48.990;12.146;2022-08-25T10:49:06;9.35;;;8.50;;
68995;SDS011;56056;48.990;12.146;2022-08-25T10:54:24;10.30;;;8.65;;
68995;SDS011;56056;48.990;12.146;2022-08-25T10:56:55;11.82;;;9.73;;
68995;SDS011;56056;48.990;12.146;2022-08-25T10:59:36;9.20;;;8.40;;
68995;SDS011;56056;48.990;12.146;2022-08-25T11:05:16;9.98;;;8.98;;
68995;SDS011;56056;48.990;12.146;2022-08-25T11:07:48;9.40;;;8.70;;
68995;SDS011;56056;48.990;12.146;2022-08-25T11:10:16;8.82;;;7.90;;
68995;SDS011;56056;48.990;12.146;2022-08-25T11:12:49;8.82;;;7.82;;
68995;SDS011;56056;48.990;12.146;2022-08-25T11:15:18;11.98;;;8.80;;
68995;SDS011;56056;48.990;12.146;2022-08-25T11:17:47;13.23;;;8.77;;
68995;SDS011;56056;48.990;12.146;2022-08-25T11:20:20;14.10;;;8.45;;
68995;SDS011;56056;48.990;12.146;2022-08-25T11:22:49;13.55;;;8.25;;
68995;SDS011;56056;48.990;12.146;2022-08-25T11:25:18;13.85;;;8.35;;
68995;SDS011;56056;48.990;12.146;2022-08-25T11:27:48;13.80;;;8.38;;
68995;SDS011;56056;48.990;12.146;2022-08-25T11:30:18;16.73;;;8.70;;
68995;SDS011;56056;48.990;12.146;2022-08-25T11:32:46;14.20;;;8.23;;
68995;SDS011;56056;48.990;12.146;2022-08-25T11:35:13;17.50;;;8.70;;
68995;SDS011;56056;48.990;12.146;2022-08-25T11:37:46;16.98;;;8.45;;
68995;SDS011;56056;48.990;12.146;2022-08-25T11:40:34;16.30;;;8.50;;
68995;SDS011;56056;48.990;12.146;2022-08-25T11:43:08;15.77;;;8.48;;
68995;SDS011;56056;48.990;12.146;2022-08-25T11:45:42;13.95;;;8.68;;
68995;SDS011;56056;48.990;12.146;2022-08-25T11:48:19;14.90;;;10.18;;
68995;SDS011;56056;48.990;12.146;2022-08-25T11:50:59;17.98;;;8.55;;
68995;SDS011;56056;48.990;12.146;2022-08-25T11:53:29;12.60;;;8.43;;
68995;SDS011;56056;48.990;12.146;2022-08-25T11:55:57;19.02;;;9.27;;
68995;SDS011;56056;48.990;12.146;2022-08-25T11:58:31;16.95;;;8.10;;
68995;SDS011;56056;48.990;12.146;2022-08-25T12:01:01;15.07;;;8.52;;
68995;SDS011;56056;48.990;12.146;2022-08-25T12:03:50;16.10;;;8.07;;
68995;SDS011;56056;48.990;12.146;2022-08-25T12:06:21;14.02;;;8.10;;
68995;SDS011;56056;48.990;12.146;2022-08-25T12:11:47;15.73;;;9.07;;
68995;SDS011;56056;48.990;12.146;2022-08-25T12:14:16;14.85;;;8.45;;
68995;SDS011;56056;48.990;12.146;2022-08-25T12:17:17;14.32;;;7.95;;
68995;SDS011;56056;48.990;12.146;2022-08-25T12:20:01;15.85;;;8.95;;
68995;SDS011;56056;48.990;12.146;2022-08-25T12:22:41;16.63;;;9.05;;
68995;SDS011;56056;48.990;12.146;2022-08-25T12:25:31;19.20;;;9.68;;
68995;SDS011;56056;48.990;12.146;2022-08-25T12:28:03;17.98;;;9.35;;
68995;SDS011;56056;48.990;12.146;2022-08-25T12:30:37;16.38;;;8.82;;
68995;SDS011;56056;48.990;12.146;2022-08-25T12:33:06;17.33;;;8.68;;
68995;SDS011;56056;48.990;12.146;2022-08-25T12:35:36;17.15;;;9.13;;
68995;SDS011;56056;48.990;12.146;2022-08-25T12:38:06;15.02;;;9.15;;
68995;SDS011;56056;48.990;12.146;2022-08-25T12:40:36;19.60;;;8.77;;
68995;SDS011;56056;48.990;12.146;2022-08-25T12:43:10;20.55;;;8.98;;
68995;SDS011;56056;48.990;12.146;2022-08-25T12:45:46;16.48;;;9.27;;
68995;SDS011;56056;48.990;12.146;2022-08-25T12:51:39;14.93;;;9.27;;
68995;SDS011;56056;48.990;12.146;2022-08-25T12:54:15;21.50;;;9.70;;
68995;SDS011;56056;48.990;12.146;2022-08-25T12:56:45;19.38;;;8.85;;
68995;SDS011;56056;48.990;12.146;2022-08-25T12:59:14;17.15;;;8.98;;
68995;SDS011;56056;48.990;12.146;2022-08-25T13:02:00;18.83;;;9.82;;
68995;SDS011;56056;48.990;12.146;2022-08-25T13:04:45;18.27;;;9.18;;
68995;SDS011;56056;48.990;12.146;2022-08-25T13:07:28;18.42;;;8.95;;
68995;SDS011;56056;48.990;12.146;2022-08-25T13:10:21;17.25;;;9.00;;
68995;SDS011;56056;48.990;12.146;2022-08-25T13:12:54;13.65;;;8.95;;
68995;SDS011;56056;48.990;12.146;2022-08-25T13:15:25;19.58;;;11.07;;
68995;SDS011;56056;48.990;12.146;2022-08-25T13:18:11;20.27;;;11.88;;
68995;SDS011;56056;48.990;12.146;2022-08-25T13:20:41;21.00;;;9.50;;
68995;SDS011;56056;48.990;12.146;2022-08-25T13:23:08;18.13;;;9.55;;
68995;SDS011;56056;48.990;12.146;2022-08-25T13:25:34;18.60;;;9.13;;
68995;SDS011;56056;48.990;12.146;2022-08-25T13:28:05;19.35;;;9.05;;
68995;SDS011;56056;48.990;12.146;2022-08-25T13:30:32;16.23;;;9.10;;
68995;SDS011;56056;48.990;12.146;2022-08-25T13:32:59;17.92;;;9.32;;
68995;SDS011;56056;48.990;12.146;2022-08-25T13:35:44;18.73;;;9.45;;
68995;SDS011;56056;48.990;12.146;2022-08-25T13:38:12;16.55;;;9.32;;
68995;SDS011;56056;48.990;12.146;2022-08-25T13:40:38;18.88;;;9.13;;
68995;SDS011;56056;48.990;12.146;2022-08-25T13:43:04;15.45;;;9.40;;
68995;SDS011;56056;48.990;12.146;2022-08-25T13:45:33;17.75;;;9.30;;
68995;SDS011;56056;48.990;12.146;2022-08-25T13:48:02;12.55;;;8.95;;
68995;SDS011;56056;48.990;12.146;2022-08-25T13:50:30;15.95;;;9.35;;
68995;SDS011;56056;48.990;12.146;2022-08-25T13:52:59;16.27;;;9.20;;
68995;SDS011;56056;48.990;12.146;2022-08-25T13:55:28;14.48;;;9.80;;
68995;SDS011;56056;48.990;12.146;2022-08-25T13:57:57;23.00;;;9.52;;
68995;SDS011;56056;48.990;12.146;2022-08-25T14:00:26;16.73;;;9.57;;
68995;SDS011;56056;48.990;12.146;2022-08-25T14:02:54;17.70;;;9.18;;
68995;SDS011;56056;48.990;12.146;2022-08-25T14:05:28;16.63;;;9.27;;
68995;SDS011;56056;48.990;12.146;2022-08-25T14:07:59;15.52;;;9.30;;
68995;SDS011;56056;48.990;12.146;2022-08-25T14:10:31;20.20;;;8.18;;
68995;SDS011;56056;48.990;12.146;2022-08-25T14:13:12;14.85;;;8.77;;
68995;SDS011;56056;48.990;12.146;2022-08-25T14:15:41;18.30;;;8.95;;
68995;SDS011;56056;48.990;12.146;2022-08-25T14:18:09;13.68;;;9.05;;
68995;SDS011;56056;48.990;12.146;2022-08-25T14:20:42;13.18;;;8.57;;
68995;SDS011;56056;48.990;12.146;2022-08-25T14:23:10;16.30;;;9.15;;
68995;SDS011;56056;48.990;12.146;2022-08-25T14:25:37;13.40;;;9.05;;
68995;SDS011;56056;48.990;12.146;2022-08-25T14:28:05;12.32;;;8.27;;
68995;SDS011;56056;48.990;12.146;2022-08-25T14:30:33;12.25;;;8.20;;
68995;SDS011;56056;48.990;12.146;2022-08-25T14:33:02;10.60;;;8.35;;
68995;SDS011;56056;48.990;12.146;2022-08-25T14:35:28;13.30;;;8.02;;
68995;SDS011;56056;48.990;12.146;2022-08-25T14:37:54;14.50;;;9.35;;
68995;SDS011;56056;48.990;12.146;2022-08-25T14:40:20;13.82;;;8.38;;
68995;SDS011;56056;48.990;12.146;2022-08-25T14:42:46;18.00;;;8.95;;
68995;SDS011;56056;48.990;12.146;2022-08-25T14:45:13;13.20;;;8.65;;
68995;SDS011;56056;48.990;12.146;2022-08-25T14:47:39;9.40;;;7.25;;